Time;durP1;ratioP1;P1;durP2;ratioP2;P2;SDS_P1;SDS_P2;PMS_P1;PMS_P2;Temp;Humidity;BMP_temperature;BMP_pressure;BME280_temperature;BME280_humidity;BME280_pressure;Samples;Min_cycle;Max_cycle;Signal;HPM_P1;HPM_P2
2021/09/16 00:00:14;;;;;;;9.23;7.75;;;487.00;1971.20;;;;;;5050755;28;20017;-61
2021/09/16 00:02:41;;;;;;;9.13;7.63;;;487.00;1945.60;;;;;;5050427;28;20467;-62
2021/09/16 00:05:09;;;;;;;11.45;7.13;;;487.10;1920.00;;;;;;5050737;28;20017;-62
2021/09/16 00:07:34;;;;;;;8.00;7.20;;;487.20;1894.40;;;;;;5050753;28;20025;-61
2021/09/16 00:10:00;;;;;;;10.05;8.65;;;487.30;1920.00;;;;;;5050406;28;20370;-61
2021/09/16 00:12:26;;;;;;;12.43;6.82;;;487.30;1920.00;;;;;;5050610;28;20116;-66
2021/09/16 00:14:52;;;;;;;9.85;8.13;;;487.30;1920.00;;;;;;5050797;28;20056;-62
2021/09/16 00:17:18;;;;;;;10.63;7.88;;;487.30;1920.00;;;;;;5051363;28;20044;-63
2021/09/16 00:19:46;;;;;;;11.13;8.63;;;512.00;1920.00;;;;;;5051149;28;20025;-62
2021/09/16 00:22:12;;;;;;;9.82;7.78;;;487.30;1920.00;;;;;;5050993;28;20037;-62
2021/09/16 00:24:37;;;;;;;8.50;7.30;;;512.00;1920.00;;;;;;5051031;28;20021;-63
2021/09/16 00:27:03;;;;;;;8.82;7.50;;;512.00;1920.00;;;;;;5052064;28;20387;-61
2021/09/16 00:29:29;;;;;;;7.93;7.10;;;512.10;1920.00;;;;;;5051566;28;20036;-62
2021/09/16 00:31:55;;;;;;;9.07;7.88;;;512.00;1920.00;;;;;;5051738;28;20025;-62
2021/09/16 00:34:21;;;;;;;10.57;7.10;;;512.00;1920.00;;;;;;5050879;28;20053;-61
2021/09/16 00:36:47;;;;;;;9.27;8.13;;;487.30;1945.60;;;;;;5050942;28;20107;-62
2021/09/16 00:39:12;;;;;;;9.82;7.70;;;487.30;1945.60;;;;;;5051310;28;20489;-61
2021/09/16 00:41:38;;;;;;;14.43;8.40;;;487.30;1920.00;;;;;;5050562;28;20041;-62
2021/09/16 00:44:04;;;;;;;8.70;7.80;;;487.30;1920.00;;;;;;5051027;28;20021;-62
2021/09/16 00:46:29;;;;;;;10.25;7.90;;;487.20;1971.20;;;;;;5051265;28;20467;-62
2021/09/16 00:48:55;;;;;;;8.20;7.40;;;487.20;1971.20;;;;;;5050875;28;20045;-62
2021/09/16 00:51:21;;;;;;;8.65;7.75;;;487.20;1971.20;;;;;;5051363;28;20025;-62
2021/09/16 00:53:47;;;;;;;11.48;7.25;;;487.20;1945.60;;;;;;5050503;28;20479;-62
2021/09/16 00:56:14;;;;;;;9.05;6.80;;;512.00;1920.00;;;;;;5050196;28;20467;-62
2021/09/16 00:58:41;;;;;;;8.05;6.90;;;512.20;1894.40;;;;;;5049631;28;20142;-60
2021/09/16 01:01:07;;;;;;;9.40;8.27;;;512.20;1894.40;;;;;;5049945;28;20052;-62
2021/09/16 01:03:34;;;;;;;10.63;7.53;;;512.20;1945.60;;;;;;5050258;28;20032;-62
2021/09/16 01:06:00;;;;;;;9.80;7.85;;;512.20;1920.00;;;;;;5049931;28;20029;-62
2021/09/16 01:08:27;;;;;;;11.77;7.78;;;512.00;1945.60;;;;;;5049731;28;20055;-63
2021/09/16 01:10:53;;;;;;;10.75;7.78;;;512.00;1945.60;;;;;;5050075;28;20029;-62
2021/09/16 01:13:19;;;;;;;9.75;7.93;;;487.30;1971.20;;;;;;5049716;28;20029;-62
2021/09/16 01:15:46;;;;;;;10.10;8.15;;;512.00;1945.60;;;;;;5049847;28;20031;-62
2021/09/16 01:18:12;;;;;;;7.68;6.90;;;512.00;1945.60;;;;;;5049721;28;20025;-61
2021/09/16 01:20:38;;;;;;;8.55;7.47;;;487.30;1945.60;;;;;;5049651;28;20098;-63
2021/09/16 01:23:04;;;;;;;9.43;7.70;;;487.30;1920.00;;;;;;5049930;28;20048;-62
2021/09/16 01:25:31;;;;;;;10.00;7.38;;;512.00;1945.60;;;;;;5049615;28;20490;-62
2021/09/16 01:27:58;;;;;;;8.60;7.32;;;512.00;1920.00;;;;;;5048379;28;20445;-62
2021/09/16 01:30:25;;;;;;;8.90;7.55;;;512.10;1920.00;;;;;;5049883;28;20025;-62
2021/09/16 01:32:52;;;;;;;13.57;8.35;;;512.20;1920.00;;;;;;5049538;28;20422;-61
2021/09/16 01:35:18;;;;;;;10.27;7.85;;;512.20;1920.00;;;;;;5049445;28;20021;-62
2021/09/16 01:37:44;;;;;;;10.30;7.50;;;512.00;1945.60;;;;;;5049810;28;20478;-62
2021/09/16 01:40:11;;;;;;;8.30;6.95;;;512.00;1945.60;;;;;;5049642;28;20104;-62
2021/09/16 01:42:42;;;;;;;10.43;8.25;;;512.00;1945.60;;;;;;5049461;28;20036;-62
2021/09/16 01:45:20;;;;;;;10.15;7.68;;;487.30;1945.60;;;;;;5049359;28;20467;-62
2021/09/16 01:47:47;;;;;;;9.48;7.55;;;487.30;1945.60;;;;;;5049283;28;20122;-62
2021/09/16 01:50:14;;;;;;;13.20;8.05;;;487.30;1945.60;;;;;;5049695;28;20092;-62
2021/09/16 01:52:40;;;;;;;10.32;7.82;;;487.30;1971.20;;;;;;5049352;28;20025;-62
2021/09/16 01:55:08;;;;;;;9.18;7.78;;;487.30;1971.20;;;;;;5049400;28;20467;-63
2021/09/16 01:57:34;;;;;;;9.32;8.25;;;487.30;1971.20;;;;;;5049436;28;20048;-62
2021/09/16 02:00:00;;;;;;;9.57;6.90;;;487.30;1971.20;;;;;;5050840;28;20040;-62
2021/09/16 02:02:26;;;;;;;8.45;7.47;;;512.00;1945.60;;;;;;5053002;28;20762;-62
2021/09/16 02:04:51;;;;;;;11.90;7.97;;;512.00;1971.20;;;;;;5053145;28;20104;-62
2021/09/16 02:07:17;;;;;;;9.25;8.32;;;512.10;1945.60;;;;;;5052693;28;20033;-62
2021/09/16 02:09:43;;;;;;;8.85;7.72;;;512.10;1945.60;;;;;;5053000;28;20055;-62
2021/09/16 02:12:09;;;;;;;11.13;8.05;;;512.20;1920.00;;;;;;5052865;28;20037;-62
2021/09/16 02:14:35;;;;;;;11.35;7.80;;;512.20;1920.00;;;;;;5052885;28;20079;-62
2021/09/16 02:17:01;;;;;;;9.10;8.18;;;512.20;1920.00;;;;;;5052475;28;20029;-62
2021/09/16 02:19:27;;;;;;;8.73;7.72;;;512.20;1920.00;;;;;;5052720;28;20021;-62
2021/09/16 02:21:53;;;;;;;9.00;7.53;;;512.30;1894.40;;;;;;5052500;28;20064;-62
2021/09/16 02:24:19;;;;;;;8.30;6.97;;;512.40;1868.80;;;;;;5052515;28;20029;-62
2021/09/16 02:26:44;;;;;;;9.15;7.20;;;512.60;1843.20;;;;;;5052625;28;20021;-62
2021/09/16 02:29:10;;;;;;;9.63;7.07;;;512.60;1843.20;;;;;;5052303;28;20493;-62
2021/09/16 02:31:36;;;;;;;10.13;7.18;;;512.80;1817.60;;;;;;5052483;28;20025;-63
2021/09/16 02:34:02;;;;;;;9.18;6.78;;;512.80;1843.20;;;;;;5052370;28;20032;-61
2021/09/16 02:36:28;;;;;;;8.10;7.10;;;512.80;1868.80;;;;;;5052210;28;20021;-62
2021/09/16 02:38:53;;;;;;;10.10;8.30;;;512.80;1843.20;;;;;;5052294;28;20056;-62
2021/09/16 02:41:20;;;;;;;8.05;7.28;;;512.80;1843.20;;;;;;5052130;28;20036;-62
2021/09/16 02:43:46;;;;;;;12.77;7.35;;;512.90;1817.60;;;;;;5052121;28;20025;-62
2021/09/16 02:46:12;;;;;;;8.35;7.10;;;537.60;1843.20;;;;;;5051996;28;20080;-62
2021/09/16 02:48:38;;;;;;;7.47;6.68;;;537.70;1843.20;;;;;;5052141;28;20040;-62
2021/09/16 02:51:05;;;;;;;9.57;7.38;;;537.70;1843.20;;;;;;5052436;28;20025;-62
2021/09/16 02:53:31;;;;;;;9.45;7.22;;;537.70;1894.40;;;;;;5052154;28;20086;-62
2021/09/16 02:55:57;;;;;;;8.45;6.93;;;537.70;1920.00;;;;;;5051861;28;20032;-62
2021/09/16 02:58:22;;;;;;;11.20;10.10;;;512.90;1920.00;;;;;;5051924;28;20098;-62
2021/09/16 03:00:48;;;;;;;13.63;10.18;;;512.60;1971.20;;;;;;5051755;28;20033;-62
2021/09/16 03:03:14;;;;;;;11.45;9.40;;;512.30;1996.80;;;;;;5051910;28;20072;-62
2021/09/16 03:05:39;;;;;;;14.70;9.77;;;512.20;1996.80;;;;;;5051643;28;20021;-62
2021/09/16 03:08:05;;;;;;;10.38;8.43;;;512.00;2022.40;;;;;;5051872;28;20031;-62
2021/09/16 03:10:31;;;;;;;9.57;8.07;;;512.10;1996.80;;;;;;5051474;28;20024;-62
2021/09/16 03:12:57;;;;;;;9.98;7.45;;;487.30;2022.40;;;;;;5050932;28;20374;-62
2021/09/16 03:15:23;;;;;;;9.15;7.80;;;512.00;1996.80;;;;;;5051718;28;20028;-62
2021/09/16 03:17:49;;;;;;;9.25;7.18;;;512.10;1996.80;;;;;;5051222;28;20041;-62
2021/09/16 03:20:14;;;;;;;11.27;7.72;;;512.20;1996.80;;;;;;5051555;28;20120;-62
2021/09/16 03:22:41;;;;;;;9.45;8.43;;;512.20;1996.80;;;;;;5051046;28;20076;-62
2021/09/16 03:25:08;;;;;;;8.98;7.28;;;512.20;1996.80;;;;;;5051440;28;20025;-63
2021/09/16 03:27:34;;;;;;;9.50;8.23;;;512.20;1971.20;;;;;;5051545;28;20025;-61
2021/09/16 03:30:00;;;;;;;8.20;7.38;;;512.20;1971.20;;;;;;5051132;28;20045;-62
2021/09/16 03:32:26;;;;;;;10.20;7.55;;;512.30;1945.60;;;;;;5051126;28;20056;-62
2021/09/16 03:34:52;;;;;;;8.82;6.97;;;512.40;1971.20;;;;;;5051172;28;20075;-62
2021/09/16 03:37:17;;;;;;;8.65;7.25;;;512.40;1971.20;;;;;;5050988;28;20036;-62
2021/09/16 03:39:43;;;;;;;9.75;7.82;;;512.40;1945.60;;;;;;5051200;28;20029;-62
2021/09/16 03:42:09;;;;;;;7.38;6.68;;;512.40;1945.60;;;;;;5050855;28;20033;-61
2021/09/16 03:44:36;;;;;;;8.75;7.32;;;512.50;1945.60;;;;;;5051231;28;20070;-62
2021/09/16 03:47:06;;;;;;;8.07;7.22;;;512.40;1971.20;;;;;;5050854;28;20097;-61
2021/09/16 03:49:35;;;;;;;9.85;8.48;;;512.40;1945.60;;;;;;5051016;28;20029;-62
2021/09/16 03:52:02;;;;;;;9.68;7.93;;;512.50;1971.20;;;;;;5050696;28;20028;-62
2021/09/16 03:54:28;;;;;;;11.13;7.93;;;512.60;1971.20;;;;;;5050981;28;20525;-62
2021/09/16 03:56:53;;;;;;;11.55;7.80;;;512.40;1996.80;;;;;;5050702;28;20102;-62
2021/09/16 03:59:19;;;;;;;8.27;7.45;;;512.60;1945.60;;;;;;5050735;28;20025;-62
2021/09/16 04:01:45;;;;;;;24.20;7.97;;;512.70;1945.60;;;;;;5050787;28;20060;-62
2021/09/16 04:04:11;;;;;;;8.10;7.30;;;512.80;1945.60;;;;;;5050897;28;20115;-62
2021/09/16 04:06:36;;;;;;;9.93;7.80;;;512.80;1945.60;;;;;;5050772;28;20025;-62
2021/09/16 04:09:02;;;;;;;9.35;6.60;;;512.90;1920.00;;;;;;5050670;28;20025;-62
2021/09/16 04:11:28;;;;;;;7.72;6.93;;;537.70;1868.80;;;;;;5050432;28;20099;-62
2021/09/16 04:13:53;;;;;;;13.32;8.15;;;537.80;1868.80;;;;;;5050676;28;20036;-62
2021/09/16 04:16:19;;;;;;;12.45;7.35;;;537.80;1868.80;;;;;;5050177;28;20044;-62
2021/09/16 04:18:45;;;;;;;12.10;6.82;;;537.90;1894.40;;;;;;5050378;28;20116;-62
2021/09/16 04:21:10;;;;;;;8.23;7.35;;;537.90;1920.00;;;;;;5050339;28;20025;-62
2021/09/16 04:23:36;;;;;;;8.27;7.38;;;537.80;1920.00;;;;;;5050094;28;20040;-62
2021/09/16 04:26:02;;;;;;;8.73;7.82;;;537.70;1920.00;;;;;;5050382;28;20510;-62
2021/09/16 04:28:28;;;;;;;10.77;7.40;;;537.80;1894.40;;;;;;5050225;28;20041;-62
2021/09/16 04:30:54;;;;;;;12.27;8.80;;;538.00;1894.40;;;;;;5050339;28;20032;-62
2021/09/16 04:33:20;;;;;;;10.50;6.78;;;538.00;1920.00;;;;;;5050061;28;20029;-62
2021/09/16 04:35:47;;;;;;;11.18;8.30;;;538.00;1894.40;;;;;;5050247;28;20099;-62
2021/09/16 04:38:15;;;;;;;14.45;8.63;;;538.00;1894.40;;;;;;5050364;28;20391;-62
2021/09/16 04:40:41;;;;;;;8.45;7.07;;;538.00;1971.20;;;;;;5050274;28;20017;-62
2021/09/16 04:43:07;;;;;;;8.50;7.32;;;538.00;1945.60;;;;;;5050155;28;20086;-62
2021/09/16 04:45:33;;;;;;;8.60;7.55;;;538.00;1945.60;;;;;;5050276;28;20029;-62
2021/09/16 04:47:59;;;;;;;10.15;8.23;;;537.80;1971.20;;;;;;5049829;28;20028;-62
2021/09/16 04:50:24;;;;;;;12.82;8.02;;;537.80;1971.20;;;;;;5050350;28;20529;-62
2021/09/16 04:52:50;;;;;;;9.20;8.25;;;537.90;1971.20;;;;;;5050082;28;20112;-62
2021/09/16 04:55:16;;;;;;;10.88;7.78;;;537.90;2048.00;;;;;;5049912;28;20477;-63
2021/09/16 04:57:41;;;;;;;9.73;8.73;;;537.70;2048.00;;;;;;5050083;28;20045;-62
2021/09/16 05:00:08;;;;;;;9.98;8.15;;;537.60;2048.00;;;;;;5050091;28;20059;-62
2021/09/16 05:02:34;;;;;;;10.90;7.45;;;537.70;2022.40;;;;;;5045481;28;20032;-61
2021/09/16 05:05:00;;;;;;;9.82;7.57;;;537.70;2022.40;;;;;;5038479;28;20033;-61
2021/09/16 05:07:26;;;;;;;8.32;7.22;;;537.80;2048.00;;;;;;5049384;28;20379;-62
2021/09/16 05:09:51;;;;;;;8.93;7.88;;;537.80;1996.80;;;;;;5050108;28;20052;-62
2021/09/16 05:12:17;;;;;;;8.68;6.75;;;537.80;2022.40;;;;;;5049671;28;20112;-62
2021/09/16 05:14:43;;;;;;;9.00;7.25;;;537.90;1996.80;;;;;;5049922;28;20017;-62
2021/09/16 05:17:09;;;;;;;7.95;7.15;;;538.10;1945.60;;;;;;5049492;28;20036;-62
2021/09/16 05:19:35;;;;;;;9.15;8.00;;;538.10;1920.00;;;;;;5049887;28;20035;-62
2021/09/16 05:22:02;;;;;;;12.45;8.55;;;538.10;2022.40;;;;;;5049562;28;20033;-62
2021/09/16 05:24:28;;;;;;;9.20;8.10;;;538.10;2048.00;;;;;;5049360;28;20029;-62
2021/09/16 05:26:54;;;;;;;13.82;8.27;;;538.00;2048.00;;;;;;5049525;28;20024;-62
2021/09/16 05:29:20;;;;;;;10.50;7.47;;;538.00;1971.20;;;;;;5049438;28;20032;-61
2021/09/16 05:31:45;;;;;;;16.35;7.85;;;538.10;1920.00;;;;;;5049326;28;20033;-62
2021/09/16 05:34:11;;;;;;;8.95;6.88;;;538.30;1945.60;;;;;;5049964;28;20053;-62
2021/09/16 05:36:37;;;;;;;8.52;7.38;;;538.50;1894.40;;;;;;5053584;28;20029;-62
2021/09/16 05:39:04;;;;;;;8.32;7.22;;;563.40;1868.80;;;;;;5053486;28;20047;-62
2021/09/16 05:41:30;;;;;;;9.52;8.02;;;563.60;1868.80;;;;;;5053290;28;20036;-62
2021/09/16 05:43:57;;;;;;;11.73;7.90;;;563.80;1843.20;;;;;;5053105;28;20390;-62
2021/09/16 05:46:22;;;;;;;12.77;7.55;;;564.10;1843.20;;;;;;5053181;28;20064;-62
2021/09/16 05:48:48;;;;;;;11.10;8.70;;;588.80;1817.60;;;;;;5053167;28;20407;-62
2021/09/16 05:51:14;;;;;;;11.05;8.85;;;;;;;;;;5053133;28;20021;-62
2021/09/16 05:53:40;;;;;;;10.43;8.45;;;;;;;;;;5053448;28;20017;-63
2021/09/16 05:56:06;;;;;;;9.57;8.63;;;;;;;;;;5053062;28;20029;-63
2021/09/16 05:58:33;;;;;;;10.82;9.30;;;;;;;;;;5053120;28;20120;-62
2021/09/16 06:00:59;;;;;;;10.52;9.43;;;;;;;;;;5052630;28;20057;-62
2021/09/16 06:03:25;;;;;;;14.32;9.50;;;;;;;;;;5052918;28;20033;-61
2021/09/16 06:05:51;;;;;;;10.02;8.45;;;;;;;;;;5052642;28;20021;-62
2021/09/16 06:08:17;;;;;;;9.60;7.97;;;;;;;;;;5046904;28;20040;-62
2021/09/16 06:10:43;;;;;;;11.80;8.90;;;;;;;;;;5042608;28;20021;-62
2021/09/16 06:13:09;;;;;;;10.98;9.02;;;;;;;;;;5032817;28;20026;-62
2021/09/16 06:15:35;;;;;;;17.90;9.77;;;563.70;2022.40;;;;;;5033132;28;20026;-61
2021/09/16 06:18:00;;;;;;;14.13;10.27;;;563.50;2048.00;;;;;;5032690;28;20435;-61
2021/09/16 06:20:26;;;;;;;12.25;9.65;;;563.40;2048.00;;;;;;5032414;28;20083;-62
2021/09/16 06:22:52;;;;;;;14.63;10.15;;;563.30;2073.60;;;;;;5032694;28;20048;-61
2021/09/16 06:25:18;;;;;;;10.35;9.18;;;563.50;2073.60;;;;;;5032497;28;20361;-61
2021/09/16 06:27:44;;;;;;;14.95;10.23;;;563.60;2048.00;;;;;;5032519;28;20048;-62
2021/09/16 06:30:10;;;;;;;11.00;8.68;;;563.90;2073.60;;;;;;5032385;28;20025;-62
2021/09/16 06:32:37;;;;;;;10.05;9.05;;;564.10;1971.20;;;;;;5032268;28;20033;-62
2021/09/16 06:35:07;;;;;;;12.10;10.57;;;589.10;1945.60;;;;;;5032648;28;20017;-62
2021/09/16 06:37:33;;;;;;;13.00;10.30;;;589.30;1971.20;;;;;;5032655;28;20051;-62
2021/09/16 06:39:59;;;;;;;22.48;17.20;;;589.30;1996.80;;;;;;5032325;28;20039;-62
2021/09/16 06:42:25;;;;;;;21.90;18.40;;;589.20;1996.80;;;;;;5032281;28;20037;-61
2021/09/16 06:44:51;;;;;;;16.67;14.18;;;589.10;1996.80;;;;;;5032245;28;20104;-63
2021/09/16 06:47:17;;;;;;;16.55;12.43;;;589.00;1996.80;;;;;;5032036;28;20053;-62
2021/09/16 06:49:46;;;;;;;15.25;12.32;;;589.10;1996.80;;;;;;5032038;28;20018;-62
2021/09/16 06:52:17;;;;;;;20.02;11.95;;;589.20;1971.20;;;;;;5032504;28;20029;-62
2021/09/16 06:54:43;;;;;;;13.88;9.73;;;589.30;1971.20;;;;;;5032217;28;20048;-62
2021/09/16 06:57:09;;;;;;;14.07;10.02;;;589.30;1971.20;;;;;;5034564;28;20136;-62
2021/09/16 06:59:36;;;;;;;13.40;9.52;;;589.50;1945.60;;;;;;5048161;28;20099;-62
2021/09/16 07:02:02;;;;;;;11.43;9.15;;;589.60;1920.00;;;;;;5045772;28;20506;-62
2021/09/16 07:04:27;;;;;;;15.60;9.15;;;614.60;1894.40;;;;;;5040606;28;20021;-63
2021/09/16 07:06:53;;;;;;;10.38;9.27;;;615.20;1894.40;;;;;;5042371;28;20021;-62
2021/09/16 07:09:19;;;;;;;10.57;8.80;;;615.30;1894.40;;;;;;5042942;28;20075;-60
2021/09/16 07:11:44;;;;;;;10.52;8.80;;;640.20;1868.80;;;;;;5033192;28;20026;-62
2021/09/16 07:14:10;;;;;;;18.83;12.27;;;640.40;1868.80;;;;;;5031799;28;20585;-62
2021/09/16 07:16:36;;;;;;;14.38;12.55;;;640.20;1920.00;;;;;;5031578;28;20383;-63
2021/09/16 07:19:02;;;;;;;15.50;11.55;;;615.30;1894.40;;;;;;5033007;28;20037;-62
2021/09/16 07:21:28;;;;;;;11.88;10.50;;;640.00;1868.80;;;;;;5038075;28;20030;-63
2021/09/16 07:23:54;;;;;;;14.60;11.07;;;640.50;1843.20;;;;;;5041919;28;20386;-62
2021/09/16 07:26:19;;;;;;;13.98;11.48;;;665.60;1843.20;;;;;;5042036;28;20036;-62
2021/09/16 07:28:45;;;;;;;14.50;11.77;;;665.80;1792.00;;;;;;5041682;28;20017;-62
2021/09/16 07:31:11;;;;;;;15.75;12.15;;;666.00;1792.00;;;;;;5039550;28;20020;-63
2021/09/16 07:33:37;;;;;;;15.07;13.48;;;666.00;1766.40;;;;;;5041898;28;20029;-61
2021/09/16 07:36:03;;;;;;;16.52;13.93;;;665.90;1817.60;;;;;;5041080;28;20018;-61
2021/09/16 07:38:28;;;;;;;16.77;14.23;;;665.70;1843.20;;;;;;5038394;28;20039;-61
2021/09/16 07:40:54;;;;;;;16.30;14.05;;;665.90;1843.20;;;;;;5042033;28;20095;-63
2021/09/16 07:43:20;;;;;;;18.25;12.43;;;666.20;1817.60;;;;;;5038306;28;20099;-62
2021/09/16 07:45:46;;;;;;;16.40;10.98;;;666.10;1817.60;;;;;;5041649;28;20483;-63
2021/09/16 07:48:11;;;;;;;12.73;11.10;;;666.00;1817.60;;;;;;5041945;28;20352;-61
2021/09/16 07:50:37;;;;;;;13.50;11.63;;;665.90;1843.20;;;;;;5041737;28;20034;-62
2021/09/16 07:53:03;;;;;;;11.82;9.45;;;665.60;1843.20;;;;;;5041708;28;20025;-63
2021/09/16 07:55:29;;;;;;;12.15;9.70;;;640.90;1843.20;;;;;;5034942;28;20080;-63
2021/09/16 07:57:55;;;;;;;13.05;9.57;;;665.60;1843.20;;;;;;5034409;28;20042;-61
2021/09/16 08:00:21;;;;;;;11.70;9.40;;;665.70;1817.60;;;;;;5033762;28;20029;-61
2021/09/16 08:02:49;;;;;;;10.20;9.07;;;665.90;1792.00;;;;;;5035010;28;20033;-62
2021/09/16 08:05:17;;;;;;;11.90;9.27;;;666.00;1766.40;;;;;;5034625;28;20021;-62
2021/09/16 08:07:43;;;;;;;11.65;9.88;;;666.00;1766.40;;;;;;5035008;28;20029;-62
2021/09/16 08:10:10;;;;;;;10.65;9.45;;;666.00;1740.80;;;;;;5034365;28;20022;-62
2021/09/16 08:12:36;;;;;;;17.05;9.27;;;666.00;1740.80;;;;;;5034636;28;20029;-61
2021/09/16 08:15:03;;;;;;;9.02;7.88;;;666.50;1689.60;;;;;;5040661;28;20490;-61
2021/09/16 08:17:29;;;;;;;10.82;9.52;;;691.70;1536.00;;;;;;5034055;28;20464;-61
2021/09/16 08:19:54;;;;;;;11.55;9.98;;;716.80;1587.20;;;;;;5038056;28;20531;-61
2021/09/16 08:22:21;;;;;;;10.43;8.98;;;717.20;1561.60;;;;;;5040541;28;20033;-63
2021/09/16 08:24:47;;;;;;;10.35;9.25;;;717.50;1510.40;;;;;;5040787;28;20068;-63
2021/09/16 08:27:12;;;;;;;11.18;10.05;;;742.60;1484.80;;;;;;5041973;28;20052;-62
2021/09/16 08:29:41;;;;;;;11.98;10.57;;;743.30;1459.20;;;;;;5040822;28;20045;-64
2021/09/16 08:32:07;;;;;;;12.68;9.48;;;743.10;1408.00;;;;;;5040931;28;20039;-63
2021/09/16 08:34:35;;;;;;;10.10;8.80;;;742.80;1459.20;;;;;;5041592;28;20525;-64
2021/09/16 08:37:01;;;;;;;12.95;11.50;;;742.60;1484.80;;;;;;5040651;28;20037;-62
2021/09/16 08:39:27;;;;;;;13.65;12.43;;;742.40;1510.40;;;;;;5040609;28;20025;-64
2021/09/16 08:41:54;;;;;;;11.80;10.02;;;742.90;1484.80;;;;;;5041288;28;20054;-63
2021/09/16 08:44:20;;;;;;;10.55;9.18;;;768.90;1382.40;;;;;;5032495;28;20041;-63
2021/09/16 08:46:47;;;;;;;10.55;9.32;;;768.70;1356.80;;;;;;5038041;28;20021;-63
2021/09/16 08:49:13;;;;;;;14.13;9.68;;;768.30;1382.40;;;;;;5042048;28;20063;-63
2021/09/16 08:51:41;;;;;;;12.75;9.75;;;768.10;1408.00;;;;;;5040520;28;20036;-61
2021/09/16 08:54:09;;;;;;;15.88;9.73;;;743.30;1433.60;;;;;;5040915;28;20025;-63
2021/09/16 08:56:38;;;;;;;12.70;10.13;;;768.10;1356.80;;;;;;5041280;28;20814;-62
2021/09/16 08:59:06;;;;;;;9.93;8.93;;;743.30;1433.60;;;;;;5040705;28;20079;-62
2021/09/16 09:01:32;;;;;;;10.98;9.20;;;768.70;1382.40;;;;;;5034032;28;20033;-63
2021/09/16 09:03:58;;;;;;;9.60;8.68;;;794.00;1382.40;;;;;;5041340;28;20040;-64
2021/09/16 09:06:37;;;;;;;14.25;11.52;;;793.90;1356.80;;;;;;5039058;28;20037;-62
2021/09/16 09:09:16;;;;;;;13.10;11.48;;;794.10;1356.80;;;;;;5040716;28;20367;-62
2021/09/16 09:12:10;;;;;;;14.73;11.43;;;768.70;1382.40;;;;;;5038817;28;20090;-61
2021/09/16 09:14:39;;;;;;;12.15;10.90;;;768.10;1433.60;;;;;;5038044;28;20033;-62
2021/09/16 09:17:27;;;;;;;13.25;10.05;;;743.30;1433.60;;;;;;5044426;28;20017;-61
2021/09/16 09:19:54;;;;;;;17.02;11.60;;;743.10;1459.20;;;;;;5044943;28;20057;-61
2021/09/16 09:22:32;;;;;;;15.73;12.50;;;742.80;1510.40;;;;;;5044124;28;20052;-62
2021/09/16 09:25:01;;;;;;;15.25;11.77;;;743.10;1484.80;;;;;;5038039;28;20024;-60
2021/09/16 09:27:36;;;;;;;15.52;11.30;;;742.90;1510.40;;;;;;5037081;28;20029;-63
2021/09/16 09:30:13;;;;;;;14.50;12.93;;;743.10;1459.20;;;;;;5037368;28;20021;-62
2021/09/16 09:33:07;;;;;;;24.55;14.82;;;768.10;1459.20;;;;;;5041293;28;20021;-62
2021/09/16 09:35:33;;;;;;;20.30;12.75;;;768.30;1510.40;;;;;;5037265;28;20088;-62
2021/09/16 09:38:23;;;;;;;26.27;15.15;;;768.70;1459.20;;;;;;5033367;28;20057;-63
2021/09/16 09:40:57;;;;;;;24.42;14.52;;;768.70;1459.20;;;;;;5041358;28;20499;-62
2021/09/16 09:43:32;;;;;;;21.45;14.27;;;768.70;1459.20;;;;;;5031334;28;20048;-63
2021/09/16 09:46:02;;;;;;;30.23;16.45;;;793.90;1484.80;;;;;;5031271;28;20037;-63
2021/09/16 09:48:28;;;;;;;26.27;15.30;;;793.70;1484.80;;;;;;5031200;28;20045;-62
2021/09/16 09:50:54;;;;;;;25.80;14.32;;;768.60;1484.80;;;;;;5031151;28;20515;-62
2021/09/16 09:53:21;;;;;;;18.10;12.23;;;768.50;1459.20;;;;;;5037402;28;20033;-62
2021/09/16 09:55:47;;;;;;;22.92;14.00;;;768.70;1433.60;;;;;;5047944;28;20036;-63
2021/09/16 09:58:12;;;;;;;21.58;13.57;;;768.90;1433.60;;;;;;5041941;28;20399;-62
2021/09/16 10:00:38;;;;;;;22.80;11.77;;;768.90;1408.00;;;;;;5032384;28;20022;-63
2021/09/16 10:03:05;;;;;;;20.08;10.35;;;768.80;1331.20;;;;;;5044884;28;20566;-63
2021/09/16 10:05:38;;;;;;;18.17;10.40;;;768.80;1331.20;;;;;;5041715;28;20049;-63
2021/09/16 10:08:06;;;;;;;13.85;9.55;;;793.90;1305.60;;;;;;5048145;28;20036;-62
2021/09/16 10:10:37;;;;;;;16.33;8.75;;;794.20;1280.00;;;;;;5050870;28;20033;-62
2021/09/16 10:13:04;;;;;;;16.73;9.82;;;794.50;1254.40;;;;;;5050851;28;20119;-63
2021/09/16 10:15:29;;;;;;;23.38;10.13;;;819.60;1254.40;;;;;;5050462;28;20108;-63
2021/09/16 10:17:55;;;;;;;17.05;9.32;;;819.30;1228.80;;;;;;5040528;28;20041;-63
2021/09/16 10:20:28;;;;;;;35.08;10.95;;;819.20;1280.00;;;;;;5032169;28;20030;-63
2021/09/16 10:22:57;;;;;;;21.30;9.80;;;819.50;1254.40;;;;;;5032762;28;20042;-63
2021/09/16 10:25:25;;;;;;;21.52;10.10;;;819.30;1228.80;;;;;;5032934;28;20099;-63
2021/09/16 10:28:03;;;;;;;17.20;9.35;;;819.60;1254.40;;;;;;5032545;28;20025;-62
2021/09/16 10:30:29;;;;;;;14.30;8.73;;;819.70;1228.80;;;;;;5032420;28;20046;-63
2021/09/16 10:33:34;;;;;;;16.00;9.57;;;819.70;1228.80;;;;;;5032948;28;20367;-62
2021/09/16 10:36:00;;;;;;;19.98;8.80;;;819.50;1228.80;;;;;;5030209;28;20029;-63
2021/09/16 10:38:37;;;;;;;16.83;9.43;;;819.80;1203.20;;;;;;5030408;28;20379;-62
2021/09/16 10:41:18;;;;;;;13.88;8.90;;;819.80;1228.80;;;;;;5030631;28;20021;-62
2021/09/16 10:44:03;;;;;;;14.55;7.10;;;820.10;1203.20;;;;;;5030200;28;20068;-62
2021/09/16 10:46:29;;;;;;;16.50;7.90;;;820.10;1177.60;;;;;;5029053;28;20053;-63
2021/09/16 10:48:56;;;;;;;12.45;7.57;;;819.70;1152.00;;;;;;5030188;28;20069;-62
2021/09/16 10:51:37;;;;;;;15.10;7.32;;;819.80;1177.60;;;;;;5030069;28;20033;-62
2021/09/16 10:54:23;;;;;;;19.17;7.65;;;820.10;1177.60;;;;;;5030249;28;20494;-62
2021/09/16 10:57:10;;;;;;;14.23;7.85;;;820.10;1152.00;;;;;;5029726;28;20053;-62
2021/09/16 10:59:47;;;;;;;16.42;6.97;;;819.90;1177.60;;;;;;5030194;28;20487;-62
2021/09/16 11:02:35;;;;;;;22.13;8.25;;;819.70;1177.60;;;;;;5029912;28;20084;-62
2021/09/16 11:05:02;;;;;;;16.77;8.30;;;819.50;1228.80;;;;;;5029713;28;20026;-62
2021/09/16 11:07:39;;;;;;;26.20;7.57;;;819.30;1228.80;;;;;;5029633;28;20030;-62
2021/09/16 11:10:19;;;;;;;22.48;11.15;;;819.20;1203.20;;;;;;5030979;28;20033;-62
2021/09/16 11:12:49;;;;;;;24.85;8.07;;;794.50;1254.40;;;;;;5031938;28;20029;-62
2021/09/16 11:15:18;;;;;;;20.73;8.20;;;794.50;1254.40;;;;;;5031885;28;20018;-62
2021/09/16 11:17:44;;;;;;;17.45;8.00;;;794.30;1228.80;;;;;;5031688;28;20084;-62
2021/09/16 11:20:13;;;;;;;16.20;7.43;;;794.30;1254.40;;;;;;5031575;28;20029;-62
2021/09/16 11:22:39;;;;;;;20.80;8.68;;;794.40;1254.40;;;;;;5031362;28;20376;-63
2021/09/16 11:25:06;;;;;;;16.50;7.72;;;794.50;1228.80;;;;;;5031719;28;20109;-62
2021/09/16 11:27:35;;;;;;;21.30;8.07;;;794.50;1254.40;;;;;;5031388;28;20061;-62
2021/09/16 11:30:02;;;;;;;17.25;7.72;;;794.50;1254.40;;;;;;5031507;28;20116;-62
2021/09/16 11:32:31;;;;;;;17.65;7.47;;;794.50;1254.40;;;;;;5030522;28;20045;-62
2021/09/16 11:34:59;;;;;;;16.27;8.40;;;794.50;1254.40;;;;;;5031283;28;20105;-62
2021/09/16 11:37:33;;;;;;;21.25;8.05;;;794.50;1254.40;;;;;;5031521;28;20021;-62
2021/09/16 11:40:07;;;;;;;18.17;7.63;;;819.60;1254.40;;;;;;5031163;28;20507;-63
2021/09/16 11:42:36;;;;;;;22.50;8.90;;;819.80;1228.80;;;;;;5031352;28;20040;-62
2021/09/16 11:45:06;;;;;;;18.90;7.90;;;819.90;1228.80;;;;;;5031136;28;20033;-62
2021/09/16 11:47:37;;;;;;;17.60;7.70;;;820.10;1228.80;;;;;;5031018;28;20040;-62
2021/09/16 11:50:04;;;;;;;26.58;8.93;;;844.80;1280.00;;;;;;5031224;28;20071;-62
2021/09/16 11:52:30;;;;;;;20.90;7.97;;;844.80;1254.40;;;;;;5031030;28;20025;-62
2021/09/16 11:55:07;;;;;;;22.20;8.05;;;820.10;1254.40;;;;;;5031274;28;20109;-62
2021/09/16 11:58:23;;;;;;;22.10;8.43;;;820.10;1228.80;;;;;;5030872;28;20055;-63
2021/09/16 12:00:54;;;;;;;23.90;8.05;;;820.10;1254.40;;;;;;4989293;28;20047;-62
2021/09/16 12:03:30;;;;;;;24.67;8.82;;;820.10;1254.40;;;;;;4989280;28;20121;-62
2021/09/16 12:05:57;;;;;;;29.02;9.68;;;819.90;1254.40;;;;;;4989450;28;20126;-62
2021/09/16 12:08:26;;;;;;;32.20;9.32;;;819.90;1280.00;;;;;;4988341;28;20030;-62
2021/09/16 12:11:05;;;;;;;23.63;10.10;;;820.10;1254.40;;;;;;4987022;28;20030;-62
2021/09/16 12:13:38;;;;;;;30.88;9.57;;;820.10;1280.00;;;;;;4987161;28;20030;-63
2021/09/16 12:16:16;;;;;;;24.45;8.57;;;820.10;1280.00;;;;;;4987274;28;20033;-63